Loughton, United Kingdom
Current Conditions -  °F | °C
As of 11:20 AM on Saturday 25 Oct 2014 (Local Time) from EGLC Reporting Station
Broken Clouds Broken Clouds  
Wind Chill: 57°   Ceiling: 4000
Heat Index: 57°   Visibility: 6mi
Dew Point: 45°   Wind: 8mph
Humidity: 63%   Direction: 260°W
Pressure: 30.09"   Gusts: NA
Location:  51.65°N, 0.05°E
Report Text: EGLC 251020Z 26007KT 230V290 9999 BKN040 14/07 Q1019
Loading
Personal Weather Stations






























Interactive Weather Map
Tropical Storm Tracking
New forecast layout! Learn more

10-Day Weather Forecast

Advertisements
Track Severe Weather on mobile